createdAt,value
2023-03-22T00:01:16.978Z,439.00
2023-03-22T00:05:16.882Z,441.00
2023-03-22T00:09:16.926Z,444.00
2023-03-22T00:13:17.142Z,441.00
2023-03-22T00:17:17.370Z,443.00
2023-03-22T00:21:17.451Z,446.00
2023-03-22T00:25:17.571Z,448.00
2023-03-22T00:29:17.779Z,448.00
2023-03-22T00:33:17.945Z,448.00
2023-03-22T00:37:18.050Z,440.00
2023-03-22T00:41:18.166Z,443.00
2023-03-22T00:45:18.291Z,445.00
2023-03-22T00:49:18.297Z,439.00
2023-03-22T00:53:18.429Z,439.00
2023-03-22T00:57:18.460Z,442.00
2023-03-22T01:01:18.617Z,443.00
2023-03-22T01:05:18.671Z,435.00
2023-03-22T01:09:18.764Z,435.00
2023-03-22T01:13:18.760Z,435.00
2023-03-22T01:17:18.804Z,434.00
2023-03-22T01:21:18.828Z,442.00
2023-03-22T01:25:18.768Z,440.00
2023-03-22T01:29:18.750Z,441.00
2023-03-22T01:33:18.793Z,441.00
2023-03-22T01:37:18.753Z,442.00
2023-03-22T01:41:18.709Z,443.00
2023-03-22T01:45:18.678Z,440.00
2023-03-22T01:49:18.828Z,443.00
2023-03-22T01:53:18.693Z,436.00
2023-03-22T01:57:18.649Z,442.00
2023-03-22T02:01:18.662Z,439.00
2023-03-22T02:05:18.620Z,439.00
2023-03-22T02:09:18.571Z,443.00
2023-03-22T02:13:18.544Z,438.00
2023-03-22T02:17:18.596Z,430.00
2023-03-22T02:21:18.507Z,432.00
2023-03-22T02:25:18.550Z,436.00
2023-03-22T02:29:18.506Z,440.00
2023-03-22T02:33:18.531Z,442.00
2023-03-22T02:37:18.509Z,441.00
2023-03-22T02:41:18.540Z,436.00
2023-03-22T02:45:18.521Z,440.00
2023-03-22T02:49:18.519Z,444.00
2023-03-22T02:53:18.504Z,446.00
2023-03-22T02:57:18.545Z,438.00
2023-03-22T03:01:18.593Z,438.00
2023-03-22T03:05:18.534Z,442.00
2023-03-22T03:09:18.550Z,442.00
2023-03-22T03:13:18.599Z,439.00
2023-03-22T03:17:18.570Z,445.00
2023-03-22T03:21:18.610Z,445.00
2023-03-22T03:25:18.663Z,440.00
2023-03-22T03:29:18.661Z,435.00
2023-03-22T03:33:18.682Z,437.00
2023-03-22T03:37:18.750Z,439.00
2023-03-22T03:41:18.766Z,436.00
2023-03-22T03:45:18.807Z,435.00
2023-03-22T03:49:18.904Z,434.00
2023-03-22T03:53:18.917Z,432.00
2023-03-22T03:57:18.972Z,432.00
2023-03-22T04:01:19.030Z,434.00
2023-03-22T04:05:19.045Z,430.00
2023-03-22T04:09:19.123Z,432.00
2023-03-22T04:13:19.174Z,435.00
2023-03-22T04:17:19.197Z,437.00
2023-03-22T04:21:19.258Z,434.00
2023-03-22T04:25:19.604Z,430.00
2023-03-22T04:29:19.436Z,432.00
2023-03-22T04:33:19.474Z,431.00
2023-03-22T04:37:19.538Z,433.00
2023-03-22T04:41:19.587Z,431.00
2023-03-22T04:45:19.661Z,430.00
2023-03-22T04:49:19.752Z,434.00
2023-03-22T04:53:19.809Z,431.00
2023-03-22T04:57:19.859Z,431.00
2023-03-22T05:01:20.045Z,434.00
2023-03-22T05:05:20.002Z,433.00
2023-03-22T05:09:22.847Z,436.00
2023-03-22T05:13:20.102Z,442.00
2023-03-22T05:17:20.134Z,441.00
2023-03-22T05:21:20.031Z,450.00
2023-03-22T05:25:19.972Z,452.00
2023-03-22T05:29:19.959Z,454.00
2023-03-22T05:33:19.933Z,456.00
2023-03-22T05:37:19.870Z,456.00
2023-03-22T05:41:19.834Z,454.00
2023-03-22T05:45:19.807Z,458.00
2023-03-22T05:49:19.789Z,457.00
2023-03-22T05:53:19.825Z,454.00
2023-03-22T05:57:19.911Z,454.00
2023-03-22T06:01:19.981Z,451.00
2023-03-22T06:05:20.126Z,445.00
2023-03-22T06:09:20.194Z,445.00
2023-03-22T06:13:20.284Z,446.00
2023-03-22T06:17:20.430Z,445.00
2023-03-22T06:21:20.508Z,446.00
2023-03-22T06:25:20.510Z,449.00
2023-03-22T06:29:20.498Z,465.00
2023-03-22T06:33:20.599Z,471.00
2023-03-22T06:37:20.750Z,505.00
2023-03-22T06:41:21.183Z,534.00
2023-03-22T06:45:20.723Z,665.00
2023-03-22T06:49:20.638Z,678.00
2023-03-22T06:53:20.603Z,699.00
2023-03-22T06:57:20.552Z,716.00
2023-03-22T07:01:22.261Z,703.00
2023-03-22T07:05:20.476Z,708.00
2023-03-22T07:09:20.429Z,698.00
2023-03-22T07:13:20.433Z,703.00
2023-03-22T07:17:20.351Z,701.00
2023-03-22T07:21:20.351Z,707.00
2023-03-22T07:25:20.281Z,715.00
2023-03-22T07:29:20.209Z,716.00
2023-03-22T07:33:20.694Z,713.00
2023-03-22T07:37:20.237Z,720.00
2023-03-22T07:41:20.218Z,700.00
2023-03-22T07:45:20.231Z,706.00
2023-03-22T07:49:20.125Z,726.00
2023-03-22T07:53:20.098Z,735.00
2023-03-22T07:57:20.162Z,744.00
2023-03-22T08:01:19.994Z,728.00
2023-03-22T08:05:19.979Z,724.00
2023-03-22T08:09:20.193Z,719.00
2023-03-22T08:13:19.931Z,720.00
2023-03-22T08:17:20.017Z,718.00
2023-03-22T08:21:20.130Z,714.00
2023-03-22T08:25:20.270Z,712.00
2023-03-22T08:29:22.350Z,715.00
2023-03-22T08:33:20.752Z,719.00
2023-03-22T08:37:20.490Z,715.00
2023-03-22T08:41:20.586Z,733.00
2023-03-22T08:45:20.608Z,776.00
2023-03-22T08:49:20.584Z,771.00
2023-03-22T08:53:20.557Z,774.00
2023-03-22T08:57:20.550Z,776.00
2023-03-22T09:01:20.875Z,791.00
2023-03-22T09:05:20.760Z,787.00
2023-03-22T09:09:20.769Z,777.00
2023-03-22T09:13:20.706Z,788.00
2023-03-22T09:17:22.402Z,796.00
2023-03-22T09:21:20.616Z,795.00
2023-03-22T09:25:20.575Z,795.00
2023-03-22T09:29:20.562Z,768.00
2023-03-22T09:33:20.617Z,564.00
2023-03-22T09:37:20.646Z,504.00
2023-03-22T09:41:20.833Z,454.00
2023-03-22T09:45:20.804Z,489.00
2023-03-22T09:49:20.777Z,576.00
2023-03-22T09:53:20.746Z,625.00
2023-03-22T09:57:20.702Z,681.00
2023-03-22T10:01:21.167Z,670.00
2023-03-22T10:05:20.750Z,655.00
2023-03-22T10:09:20.630Z,620.00
2023-03-22T10:13:20.547Z,542.00
2023-03-22T10:17:20.503Z,527.00
2023-03-22T10:21:20.497Z,526.00
2023-03-22T10:25:20.476Z,528.00
2023-03-22T10:29:20.401Z,541.00
2023-03-22T10:33:20.376Z,614.00
2023-03-22T10:37:20.404Z,634.00
2023-03-22T10:41:20.329Z,645.00
2023-03-22T10:45:20.362Z,701.00
2023-03-22T10:49:20.396Z,741.00
2023-03-22T10:53:20.365Z,761.00
2023-03-22T10:57:20.328Z,778.00
2023-03-22T11:01:20.471Z,793.00
2023-03-22T11:05:20.282Z,801.00
2023-03-22T11:09:20.261Z,806.00
2023-03-22T11:13:20.301Z,812.00
2023-03-22T11:17:20.138Z,825.00
2023-03-22T11:21:20.308Z,831.00
2023-03-22T11:25:20.136Z,841.00
2023-03-22T11:29:20.181Z,833.00
2023-03-22T11:33:20.019Z,740.00
2023-03-22T11:37:20.012Z,815.00
2023-03-22T11:41:20.136Z,815.00
2023-03-22T11:45:19.879Z,799.00
2023-03-22T11:49:19.840Z,816.00
2023-03-22T11:53:19.846Z,829.00
2023-03-22T11:57:19.836Z,824.00
2023-03-22T12:01:19.746Z,830.00
2023-03-22T12:05:19.798Z,838.00
2023-03-22T12:09:19.747Z,840.00
2023-03-22T12:13:19.727Z,839.00
2023-03-22T12:17:19.767Z,860.00
2023-03-22T12:21:19.716Z,737.00
2023-03-22T12:25:19.754Z,656.00
2023-03-22T12:29:19.879Z,599.00
2023-03-22T12:33:19.939Z,549.00
2023-03-22T12:37:20.029Z,526.00
2023-03-22T12:41:20.163Z,496.00
2023-03-22T12:45:20.312Z,481.00
2023-03-22T12:49:20.522Z,472.00
2023-03-22T12:53:20.760Z,463.00
2023-03-22T12:57:20.901Z,463.00
2023-03-22T13:01:21.111Z,461.00
2023-03-22T13:05:21.078Z,461.00
2023-03-22T13:09:21.133Z,459.00
2023-03-22T13:13:21.261Z,464.00
2023-03-22T13:17:21.175Z,465.00
2023-03-22T13:21:21.241Z,454.00
2023-03-22T13:25:21.181Z,454.00
2023-03-22T13:29:21.236Z,453.00
2023-03-22T13:33:21.326Z,451.00
2023-03-22T13:37:21.264Z,450.00
2023-03-22T13:41:21.366Z,446.00
2023-03-22T13:45:21.456Z,445.00
2023-03-22T13:49:21.452Z,445.00
2023-03-22T13:53:21.643Z,440.00
2023-03-22T13:57:21.517Z,440.00
2023-03-22T14:01:21.764Z,438.00
2023-03-22T14:05:21.965Z,442.00
2023-03-22T14:09:21.904Z,440.00
2023-03-22T14:13:21.883Z,438.00
2023-03-22T14:17:21.842Z,430.00
2023-03-22T14:21:21.820Z,432.00
2023-03-22T14:46:12.011Z,445.00
2023-03-22T14:50:11.903Z,446.00
2023-03-22T14:54:11.953Z,442.00
2023-03-22T14:58:11.852Z,441.00
2023-03-22T15:02:11.857Z,444.00
2023-03-22T15:06:11.791Z,445.00
2023-03-22T15:10:11.731Z,446.00
2023-03-22T15:14:11.756Z,446.00
2023-03-22T15:18:11.722Z,443.00
2023-03-22T15:22:11.905Z,442.00
2023-03-22T15:26:12.125Z,443.00
2023-03-22T15:30:12.274Z,439.00
2023-03-22T15:34:12.487Z,439.00
2023-03-22T15:38:12.459Z,441.00
2023-03-22T15:42:12.452Z,436.00
2023-03-22T15:46:12.485Z,439.00
2023-03-22T15:50:12.387Z,441.00
2023-03-22T15:54:12.318Z,440.00
2023-03-22T15:58:12.253Z,441.00
2023-03-22T16:02:12.259Z,449.00
2023-03-22T16:06:12.191Z,441.00
2023-03-22T16:10:12.197Z,442.00
2023-03-22T16:14:12.136Z,440.00
2023-03-22T16:18:12.095Z,435.00
2023-03-22T16:22:12.188Z,436.00
2023-03-22T16:26:12.297Z,441.00
2023-03-22T16:30:12.239Z,440.00
2023-03-22T16:34:12.246Z,442.00
2023-03-22T16:38:12.311Z,437.00
2023-03-22T16:42:12.361Z,435.00
2023-03-22T16:46:12.385Z,434.00
2023-03-22T16:50:12.465Z,436.00
2023-03-22T16:54:12.548Z,434.00
2023-03-22T16:58:12.690Z,438.00
2023-03-22T17:02:12.839Z,445.00
2023-03-22T17:06:12.993Z,445.00
2023-03-22T17:10:13.205Z,443.00
2023-03-22T17:14:13.168Z,444.00
2023-03-22T17:18:13.129Z,442.00
2023-03-22T17:22:13.124Z,448.00
2023-03-22T17:26:13.075Z,445.00
2023-03-22T17:30:12.998Z,446.00
2023-03-22T17:34:13.033Z,444.00
2023-03-22T17:38:14.066Z,441.00
2023-03-22T17:42:12.905Z,440.00
2023-03-22T17:46:57.299Z,442.00
2023-03-22T17:50:13.816Z,444.00
2023-03-22T17:54:48.906Z,448.00
2023-03-22T17:58:31.481Z,448.00
2023-03-22T18:02:16.231Z,448.00
2023-03-22T18:06:13.703Z,446.00
2023-03-22T18:10:12.643Z,451.00
2023-03-22T18:14:24.970Z,449.00
2023-03-22T18:18:13.550Z,453.00
2023-03-22T18:22:12.570Z,455.00
2023-03-22T18:26:27.408Z,451.00
2023-03-22T18:30:13.486Z,450.00
2023-03-22T18:34:12.434Z,453.00
2023-03-22T18:38:17.753Z,458.00
2023-03-22T18:42:20.561Z,475.00
2023-03-22T18:46:19.028Z,475.00
2023-03-22T18:50:13.311Z,467.00
2023-03-22T18:54:12.288Z,466.00
2023-03-22T18:58:12.235Z,465.00
2023-03-22T19:02:18.165Z,467.00
2023-03-22T19:06:13.146Z,465.00
2023-03-22T19:10:12.112Z,467.00
2023-03-22T19:14:54.821Z,467.00
2023-03-22T19:18:13.094Z,462.00
2023-03-22T19:22:11.997Z,460.00
2023-03-22T19:26:11.963Z,457.00
2023-03-22T19:30:12.042Z,458.00
2023-03-22T19:34:12.181Z,452.00
2023-03-22T19:38:12.219Z,451.00
2023-03-22T19:42:12.414Z,453.00
2023-03-22T19:46:12.438Z,456.00
2023-03-22T19:50:12.560Z,451.00
2023-03-22T19:58:13.634Z,455.00
2023-03-22T20:02:12.582Z,456.00
2023-03-22T20:06:12.512Z,450.00
2023-03-22T20:10:12.499Z,450.00
2023-03-22T20:14:12.565Z,456.00
2023-03-22T20:18:12.704Z,457.00
2023-03-22T20:22:12.779Z,452.00
2023-03-22T20:26:12.912Z,455.00
2023-03-22T20:30:13.045Z,454.00
2023-03-22T20:34:13.120Z,459.00
2023-03-22T20:38:13.238Z,452.00
2023-03-22T20:42:13.377Z,450.00
2023-03-22T20:46:13.498Z,454.00
2023-03-22T20:50:13.608Z,454.00
2023-03-22T20:54:13.779Z,455.00
2023-03-22T20:58:13.834Z,452.00
2023-03-22T21:02:13.972Z,453.00
2023-03-22T21:06:14.103Z,452.00
2023-03-22T21:10:14.223Z,453.00
2023-03-22T21:14:15.836Z,448.00
2023-03-22T21:18:14.550Z,450.00
2023-03-22T21:22:14.679Z,450.00
2023-03-22T21:26:14.808Z,452.00
2023-03-22T21:30:14.933Z,446.00
2023-03-22T21:34:15.054Z,451.00
2023-03-22T21:38:15.213Z,451.00
2023-03-22T21:42:15.376Z,447.00
2023-03-22T21:46:15.506Z,449.00
2023-03-22T21:50:15.683Z,447.00
2023-03-22T21:54:15.780Z,447.00
2023-03-22T21:58:15.984Z,446.00
2023-03-22T22:02:16.149Z,447.00
2023-03-22T22:06:16.352Z,446.00
2023-03-22T22:10:16.496Z,444.00
2023-03-22T22:14:16.648Z,440.00
2023-03-22T22:18:16.849Z,446.00
2023-03-22T22:22:17.319Z,445.00
2023-03-22T22:26:17.311Z,445.00
2023-03-22T22:30:17.446Z,449.00
2023-03-22T22:34:17.628Z,445.00
2023-03-22T22:38:17.861Z,447.00
2023-03-22T22:42:18.052Z,447.00
2023-03-22T22:46:18.262Z,449.00
2023-03-22T22:50:18.495Z,448.00
2023-03-22T22:54:18.736Z,442.00
2023-03-22T22:58:18.895Z,438.00
2023-03-22T23:02:19.103Z,440.00
2023-03-22T23:06:19.311Z,443.00
2023-03-22T23:10:19.475Z,437.00
2023-03-22T23:14:19.718Z,441.00
2023-03-22T23:18:19.962Z,436.00
2023-03-22T23:22:20.153Z,439.00
2023-03-22T23:26:20.147Z,440.00
2023-03-22T23:30:20.103Z,443.00
2023-03-22T23:34:20.036Z,444.00
2023-03-22T23:38:20.054Z,443.00
2023-03-22T23:42:19.972Z,445.00
2023-03-22T23:46:19.949Z,443.00
2023-03-22T23:50:19.934Z,438.00
2023-03-22T23:54:19.903Z,447.00
2023-03-22T23:58:19.884Z,442.00
